createdAt,value
2019-05-30T00:00:08.868Z,1018.84
2019-05-30T00:00:53.946Z,1018.81
2019-05-30T00:01:54.174Z,1018.84
2019-05-30T00:02:53.935Z,1018.77
2019-05-30T00:03:53.947Z,1018.84
2019-05-30T00:04:54.050Z,1018.79
2019-05-30T00:05:54.153Z,1018.80
2019-05-30T00:06:54.174Z,1018.83
2019-05-30T00:07:54.052Z,1018.81
2019-05-30T00:08:52.730Z,1018.79
2019-05-30T00:09:52.709Z,1018.81
2019-05-30T00:10:52.700Z,1018.84
2019-05-30T00:11:52.696Z,1018.88
2019-05-30T00:12:52.676Z,1018.89
2019-05-30T00:13:52.665Z,1018.85
2019-05-30T00:14:52.659Z,1018.91
2019-05-30T00:15:52.645Z,1018.89
2019-05-30T00:16:52.643Z,1018.90
2019-05-30T00:17:52.623Z,1018.93
2019-05-30T00:18:52.614Z,1018.93
2019-05-30T00:19:52.602Z,1018.91
2019-05-30T00:20:52.590Z,1018.93
2019-05-30T00:21:52.588Z,1018.95
2019-05-30T00:22:52.593Z,1018.90
2019-05-30T00:23:52.560Z,1018.92
2019-05-30T00:24:52.547Z,1018.92
2019-05-30T00:25:52.540Z,1018.95
2019-05-30T00:26:52.538Z,1018.96
2019-05-30T00:27:52.517Z,1018.94
2019-05-30T00:28:52.503Z,1018.96
2019-05-30T00:29:52.491Z,1019.00
2019-05-30T00:30:52.480Z,1018.92
2019-05-30T00:31:52.480Z,1018.94
2019-05-30T00:32:52.459Z,1018.93
2019-05-30T00:33:52.448Z,1018.95
2019-05-30T00:34:52.437Z,1018.97
2019-05-30T00:35:52.427Z,1018.91
2019-05-30T00:36:52.425Z,1018.98
2019-05-30T00:37:52.404Z,1018.96
2019-05-30T00:38:52.403Z,1018.92
2019-05-30T00:39:52.385Z,1018.92
2019-05-30T00:40:52.379Z,1018.90
2019-05-30T00:41:52.370Z,1018.96
2019-05-30T00:42:52.352Z,1018.93
2019-05-30T00:43:52.342Z,1018.91
2019-05-30T00:44:52.331Z,1018.94
2019-05-30T00:45:52.322Z,1018.88
2019-05-30T00:46:52.368Z,1018.83
2019-05-30T00:47:52.297Z,1018.83
2019-05-30T00:48:52.286Z,1018.87
2019-05-30T00:49:52.277Z,1018.89
2019-05-30T00:50:52.273Z,1018.88
2019-05-30T00:51:52.255Z,1018.97
2019-05-30T00:52:52.251Z,1018.91
2019-05-30T00:53:52.231Z,1018.96
2019-05-30T00:54:52.221Z,1018.92
2019-05-30T00:55:52.213Z,1018.94
2019-05-30T00:56:52.200Z,1018.93
2019-05-30T00:57:52.199Z,1018.92
2019-05-30T00:58:52.178Z,1018.92
2019-05-30T00:59:52.165Z,1018.94
2019-05-30T01:00:52.155Z,1018.97
2019-05-30T01:01:52.144Z,1018.92
2019-05-30T01:02:52.167Z,1018.92
2019-05-30T01:03:52.123Z,1018.91
2019-05-30T01:04:52.118Z,1018.87
2019-05-30T01:05:52.105Z,1018.93
2019-05-30T01:06:52.134Z,1018.88
2019-05-30T01:07:52.098Z,1018.96
2019-05-30T01:08:52.073Z,1018.93
2019-05-30T01:09:52.058Z,1018.91
2019-05-30T01:10:52.050Z,1018.94
2019-05-30T01:11:52.036Z,1018.87
2019-05-30T01:12:52.036Z,1018.93
2019-05-30T01:13:52.017Z,1018.88
2019-05-30T01:14:52.011Z,1018.91
2019-05-30T01:15:51.998Z,1018.91
2019-05-30T01:16:51.984Z,1018.93
2019-05-30T01:17:51.983Z,1018.91
2019-05-30T01:18:51.963Z,1018.96
2019-05-30T01:19:51.960Z,1018.94
2019-05-30T01:20:51.940Z,1018.93
2019-05-30T01:21:51.932Z,1018.91
2019-05-30T01:22:51.931Z,1018.91
2019-05-30T01:23:51.909Z,1018.95
2019-05-30T01:24:51.909Z,1018.93
2019-05-30T01:25:51.887Z,1018.90
2019-05-30T01:26:51.876Z,1018.89
2019-05-30T01:27:51.877Z,1018.85
2019-05-30T01:28:51.857Z,1018.90
2019-05-30T01:29:51.855Z,1018.89
2019-05-30T01:31:00.304Z,1018.91
2019-05-30T01:31:52.822Z,1018.93
2019-05-30T01:32:51.827Z,1018.90
2019-05-30T01:33:51.808Z,1018.90
2019-05-30T01:34:51.790Z,1018.91
2019-05-30T01:35:51.782Z,1018.91
2019-05-30T01:36:51.769Z,1018.90
2019-05-30T01:37:51.771Z,1018.90
2019-05-30T01:38:51.748Z,1018.87
2019-05-30T01:39:51.739Z,1018.87
2019-05-30T01:40:51.730Z,1018.86
2019-05-30T01:41:51.717Z,1018.90
2019-05-30T01:42:51.715Z,1018.87
2019-05-30T01:43:51.697Z,1018.88
2019-05-30T01:44:51.685Z,1018.86
2019-05-30T01:45:51.674Z,1018.85
2019-05-30T01:46:51.662Z,1018.85
2019-05-30T01:47:51.662Z,1018.88
2019-05-30T01:48:51.641Z,1018.88
2019-05-30T01:49:51.634Z,1018.91
2019-05-30T01:50:51.621Z,1018.90
2019-05-30T01:51:51.610Z,1018.87
2019-05-30T01:52:51.657Z,1018.85
2019-05-30T01:53:51.589Z,1018.84
2019-05-30T01:54:51.581Z,1018.92
2019-05-30T01:55:51.566Z,1018.87
2019-05-30T01:56:51.554Z,1018.87
2019-05-30T01:57:51.544Z,1018.84
2019-05-30T01:58:51.542Z,1018.87
2019-05-30T01:59:51.529Z,1018.88
2019-05-30T02:00:51.511Z,1018.88
2019-05-30T02:01:51.502Z,1018.88
2019-05-30T02:02:51.497Z,1018.89
2019-05-30T02:03:51.488Z,1018.88
2019-05-30T02:04:51.472Z,1018.89
2019-05-30T02:05:51.460Z,1018.88
2019-05-30T02:06:51.446Z,1018.91
2019-05-30T02:07:51.437Z,1018.85
2019-05-30T02:08:51.433Z,1018.87
2019-05-30T02:09:51.415Z,1018.85
2019-05-30T02:10:51.403Z,1018.86
2019-05-30T02:11:51.395Z,1018.86
2019-05-30T02:12:51.391Z,1018.85
2019-05-30T02:13:51.379Z,1018.83
2019-05-30T02:14:51.361Z,1018.84
2019-05-30T02:15:51.368Z,1018.82
2019-05-30T02:16:51.339Z,1018.79
2019-05-30T02:17:51.329Z,1018.79
2019-05-30T02:18:51.335Z,1018.87
2019-05-30T02:19:51.307Z,1018.86
2019-05-30T02:20:51.295Z,1018.86
2019-05-30T02:21:51.284Z,1018.87
2019-05-30T02:22:51.281Z,1018.83
2019-05-30T02:23:51.270Z,1018.88
2019-05-30T02:24:51.253Z,1018.87
2019-05-30T02:25:51.244Z,1018.86
2019-05-30T02:26:51.235Z,1018.91
2019-05-30T02:27:51.229Z,1018.88
2019-05-30T02:28:51.216Z,1018.95
2019-05-30T02:29:51.198Z,1018.90
2019-05-30T02:30:51.190Z,1018.90
2019-05-30T02:31:51.180Z,1018.94
2019-05-30T02:32:51.168Z,1018.92
2019-05-30T02:33:51.164Z,1018.86
2019-05-30T02:34:51.146Z,1018.93
2019-05-30T02:35:51.134Z,1018.91
2019-05-30T02:36:51.124Z,1018.88
2019-05-30T02:37:51.117Z,1018.86
2019-05-30T02:38:51.110Z,1018.93
2019-05-30T02:39:51.089Z,1018.93
2019-05-30T02:40:51.082Z,1018.95
2019-05-30T02:41:51.072Z,1018.96
2019-05-30T02:42:51.060Z,1019.00
2019-05-30T02:43:51.064Z,1018.98
2019-05-30T02:44:51.038Z,1019.00
2019-05-30T02:45:51.034Z,1019.00
2019-05-30T02:46:51.017Z,1019.03
2019-05-30T02:47:51.010Z,1019.04
2019-05-30T02:48:58.924Z,1019.03
2019-05-30T02:49:51.982Z,1019.03
2019-05-30T02:50:50.973Z,1019.06
2019-05-30T02:51:50.965Z,1019.05
2019-05-30T02:52:50.970Z,1019.06
2019-05-30T02:53:50.948Z,1019.08
2019-05-30T02:54:50.930Z,1019.07
2019-05-30T02:55:50.919Z,1019.11
2019-05-30T02:56:50.908Z,1019.11
2019-05-30T02:57:50.898Z,1019.08
2019-05-30T02:58:50.895Z,1019.11
2019-05-30T02:59:50.882Z,1019.15
2019-05-30T03:00:50.864Z,1019.12
2019-05-30T03:02:00.846Z,1019.16
2019-05-30T03:02:51.849Z,1019.13
2019-05-30T03:03:50.874Z,1019.17
2019-05-30T03:04:50.822Z,1019.15
2019-05-30T03:05:50.834Z,1019.14
2019-05-30T03:06:50.802Z,1019.16
2019-05-30T03:07:50.795Z,1019.19
2019-05-30T03:08:50.778Z,1019.13
2019-05-30T03:09:50.781Z,1019.10
2019-05-30T03:10:50.765Z,1019.08
2019-05-30T03:11:50.744Z,1019.15
2019-05-30T03:12:50.737Z,1019.14
2019-05-30T03:13:50.725Z,1019.12
2019-05-30T03:14:50.723Z,1019.14
2019-05-30T03:15:50.705Z,1019.13
2019-05-30T03:16:50.695Z,1019.11
2019-05-30T03:17:50.682Z,1019.11
2019-05-30T03:18:50.759Z,1019.16
2019-05-30T03:19:50.669Z,1019.12
2019-05-30T03:20:50.685Z,1019.15
2019-05-30T03:21:50.636Z,1019.15
2019-05-30T03:22:50.638Z,1019.15
2019-05-30T03:23:50.623Z,1019.21
2019-05-30T03:24:50.615Z,1019.22
2019-05-30T03:25:50.595Z,1019.25
2019-05-30T03:26:50.583Z,1019.26
2019-05-30T03:27:50.575Z,1019.28
2019-05-30T03:28:53.382Z,1019.29
2019-05-30T03:29:50.564Z,1019.30
2019-05-30T03:30:50.547Z,1019.28
2019-05-30T03:31:50.643Z,1019.26
2019-05-30T03:33:19.128Z,1019.28
2019-05-30T03:33:51.539Z,1019.25
2019-05-30T03:34:50.625Z,1019.27
2019-05-30T03:35:50.491Z,1019.20
2019-05-30T03:36:50.477Z,1019.27
2019-05-30T03:37:50.475Z,1019.27
2019-05-30T03:38:50.459Z,1019.24
2019-05-30T03:39:50.453Z,1019.23
2019-05-30T03:40:50.442Z,1019.24
2019-05-30T03:41:50.427Z,1019.27
2019-05-30T03:42:50.413Z,1019.29
2019-05-30T03:43:50.427Z,1019.27
2019-05-30T03:44:50.400Z,1019.35
2019-05-30T03:45:50.383Z,1019.33
2019-05-30T03:46:50.391Z,1019.32
2019-05-30T03:47:50.358Z,1019.34
2019-05-30T03:48:50.347Z,1019.34
2019-05-30T03:49:50.347Z,1019.40
2019-05-30T03:50:50.325Z,1019.32
2019-05-30T03:51:50.316Z,1019.27
2019-05-30T03:52:50.302Z,1019.32
2019-05-30T03:53:50.295Z,1019.32
2019-05-30T03:54:50.295Z,1019.38
2019-05-30T03:55:50.275Z,1019.32
2019-05-30T03:56:50.260Z,1019.33
2019-05-30T03:57:50.249Z,1019.37
2019-05-30T03:58:50.241Z,1019.43
2019-05-30T03:59:50.250Z,1019.44
2019-05-30T04:00:51.369Z,1019.43
2019-05-30T04:01:50.207Z,1019.47
2019-05-30T04:02:57.653Z,1019.51
2019-05-30T04:03:51.185Z,1019.49
2019-05-30T04:04:50.187Z,1019.47
2019-05-30T04:05:50.163Z,1019.53
2019-05-30T04:06:50.153Z,1019.56
2019-05-30T04:07:50.148Z,1019.57
2019-05-30T04:08:50.135Z,1019.58
2019-05-30T04:09:50.153Z,1019.61
2019-05-30T04:10:50.119Z,1019.61
2019-05-30T04:11:50.096Z,1019.62
2019-05-30T04:12:50.085Z,1019.63
2019-05-30T04:13:50.081Z,1019.62
2019-05-30T04:14:50.063Z,1019.60
2019-05-30T04:15:50.062Z,1019.61
2019-05-30T04:16:50.059Z,1019.60
2019-05-30T04:17:50.031Z,1019.59
2019-05-30T04:18:50.022Z,1019.61
2019-05-30T04:19:50.012Z,1019.67
2019-05-30T04:20:50.020Z,1019.62
2019-05-30T04:21:49.993Z,1019.68
2019-05-30T04:22:49.978Z,1019.72
2019-05-30T04:23:49.970Z,1019.70
2019-05-30T04:24:49.956Z,1019.77
2019-05-30T04:25:49.956Z,1019.71
2019-05-30T04:26:49.939Z,1019.74
2019-05-30T04:27:49.923Z,1019.71
2019-05-30T04:28:49.913Z,1019.75
2019-05-30T04:29:49.901Z,1019.76
2019-05-30T04:30:49.905Z,1019.78
2019-05-30T04:31:49.884Z,1019.77
2019-05-30T04:32:49.870Z,1019.81
2019-05-30T04:33:49.860Z,1019.71
2019-05-30T04:34:49.859Z,1019.77
2019-05-30T04:35:49.846Z,1019.79
2019-05-30T04:36:53.245Z,1019.81
2019-05-30T04:37:49.823Z,1019.86
2019-05-30T04:38:49.806Z,1019.79
2019-05-30T04:39:49.797Z,1019.80
2019-05-30T04:40:49.791Z,1019.77
2019-05-30T04:41:49.781Z,1019.82
2019-05-30T04:42:49.764Z,1019.85
2019-05-30T04:43:49.759Z,1019.84
2019-05-30T04:44:49.757Z,1019.84
2019-05-30T04:45:49.754Z,1019.87
2019-05-30T04:46:49.724Z,1019.89
2019-05-30T04:47:49.712Z,1019.89
2019-05-30T04:48:49.707Z,1019.89
2019-05-30T04:49:49.695Z,1019.90
2019-05-30T04:50:49.689Z,1019.89
2019-05-30T04:51:49.670Z,1019.95
2019-05-30T04:52:49.662Z,1019.89
2019-05-30T04:53:49.661Z,1019.84
2019-05-30T04:54:49.644Z,1019.89
2019-05-30T04:55:49.655Z,1019.90
2019-05-30T04:56:49.629Z,1019.83
2019-05-30T04:57:49.612Z,1019.87
2019-05-30T04:58:49.598Z,1019.85
2019-05-30T04:59:49.590Z,1019.89
2019-05-30T05:00:49.577Z,1019.90
2019-05-30T05:01:49.613Z,1019.90
2019-05-30T05:02:49.559Z,1019.97
2019-05-30T05:03:49.548Z,1019.93
2019-05-30T05:04:49.538Z,1019.99
2019-05-30T05:05:49.531Z,1019.92
2019-05-30T05:06:49.525Z,1019.91
2019-05-30T05:07:49.511Z,1019.93
2019-05-30T05:08:49.500Z,1019.96
2019-05-30T05:09:49.497Z,1019.92
2019-05-30T05:10:49.478Z,1019.92
2019-05-30T05:11:49.485Z,1019.93
2019-05-30T05:12:49.459Z,1019.92
2019-05-30T05:13:49.460Z,1019.89
2019-05-30T05:14:49.437Z,1019.91
2019-05-30T05:15:49.429Z,1019.91
2019-05-30T05:16:49.426Z,1019.96
2019-05-30T05:17:49.410Z,1019.89
2019-05-30T05:18:49.412Z,1019.86
2019-05-30T05:19:49.396Z,1019.90
2019-05-30T05:20:49.384Z,1019.88
2019-05-30T05:21:49.377Z,1019.88
2019-05-30T05:22:49.358Z,1019.89
2019-05-30T05:23:49.349Z,1019.92
2019-05-30T05:24:49.343Z,1019.88
2019-05-30T05:26:00.312Z,1019.91
2019-05-30T05:26:50.329Z,1019.95
2019-05-30T05:27:49.312Z,1019.97
2019-05-30T05:28:49.300Z,1019.90
2019-05-30T05:29:49.290Z,1019.87
2019-05-30T05:30:49.282Z,1019.91
2019-05-30T05:31:49.281Z,1019.88
2019-05-30T05:32:49.262Z,1020.01
2019-05-30T05:33:56.798Z,1019.95
2019-05-30T05:34:52.116Z,1019.98
2019-05-30T05:35:49.235Z,1019.94
2019-05-30T05:36:49.231Z,1019.93
2019-05-30T05:37:49.221Z,1019.91
2019-05-30T05:38:49.205Z,1019.91
2019-05-30T05:39:49.207Z,1019.86
2019-05-30T05:40:49.187Z,1019.98
2019-05-30T05:41:49.187Z,1019.92
2019-05-30T05:42:49.172Z,1019.98
2019-05-30T05:43:49.161Z,1020.03
2019-05-30T05:44:49.152Z,1019.99
2019-05-30T05:45:49.141Z,1020.01
2019-05-30T05:46:49.140Z,1019.99
2019-05-30T05:47:49.122Z,1019.98
2019-05-30T05:48:49.115Z,1020.02
2019-05-30T05:49:49.104Z,1019.93
2019-05-30T05:50:49.094Z,1019.90
2019-05-30T05:51:49.117Z,1019.93
2019-05-30T05:52:49.079Z,1019.90
2019-05-30T05:53:49.070Z,1019.88
2019-05-30T05:54:49.056Z,1019.92
2019-05-30T05:55:49.046Z,1019.96
2019-05-30T05:56:49.049Z,1019.91
2019-05-30T05:57:49.026Z,1019.90
2019-05-30T05:58:49.017Z,1020.01
2019-05-30T05:59:49.007Z,1019.98
2019-05-30T06:00:49.005Z,1019.98
2019-05-30T06:01:48.995Z,1020.00
2019-05-30T06:02:48.977Z,1019.95
2019-05-30T06:03:48.967Z,1020.00
2019-05-30T06:04:48.958Z,1020.04
2019-05-30T06:05:53.076Z,1019.99
2019-05-30T06:06:48.974Z,1020.03
2019-05-30T06:07:48.930Z,1020.05
2019-05-30T06:08:48.921Z,1020.08
2019-05-30T06:09:48.914Z,1020.02
2019-05-30T06:10:48.907Z,1020.08
2019-05-30T06:11:49.196Z,1020.03
2019-05-30T06:12:48.892Z,1020.02
2019-05-30T06:13:48.873Z,1020.07
2019-05-30T06:14:48.864Z,1020.03
2019-05-30T06:15:48.854Z,1020.07
2019-05-30T06:16:48.845Z,1020.05
2019-05-30T06:17:48.843Z,1020.03
2019-05-30T06:18:48.828Z,1020.06
2019-05-30T06:19:48.817Z,1020.04
2019-05-30T06:20:48.806Z,1020.05
2019-05-30T06:21:54.112Z,1020.00
2019-05-30T06:22:49.796Z,1020.02
2019-05-30T06:23:48.788Z,1020.05
2019-05-30T06:24:48.772Z,1020.12
2019-05-30T06:25:48.761Z,1020.10
2019-05-30T06:26:48.759Z,1020.03
2019-05-30T06:27:48.751Z,1020.00
2019-05-30T06:28:48.738Z,1020.04
2019-05-30T06:29:48.723Z,1020.05
2019-05-30T06:30:48.713Z,1019.99
2019-05-30T06:31:48.706Z,1019.96
2019-05-30T06:32:48.707Z,1019.96
2019-05-30T06:33:48.686Z,1019.93
2019-05-30T06:34:48.677Z,1019.96
2019-05-30T06:35:48.665Z,1019.94
2019-05-30T06:36:48.658Z,1019.96
2019-05-30T06:37:48.653Z,1019.94
2019-05-30T06:38:48.636Z,1019.93
2019-05-30T06:39:48.629Z,1019.91
2019-05-30T06:40:48.620Z,1019.94
2019-05-30T06:41:48.607Z,1019.95
2019-05-30T06:42:48.604Z,1019.99
2019-05-30T06:43:48.586Z,1019.94
2019-05-30T06:44:48.578Z,1019.86
2019-05-30T06:45:48.567Z,1019.88
2019-05-30T06:46:48.560Z,1019.83
2019-05-30T06:47:48.563Z,1019.81
2019-05-30T06:48:48.536Z,1019.81
2019-05-30T06:49:48.525Z,1019.75
2019-05-30T06:50:48.516Z,1019.77
2019-05-30T06:51:48.510Z,1019.78
2019-05-30T06:52:48.508Z,1019.80
2019-05-30T06:53:48.485Z,1019.80
2019-05-30T06:54:48.477Z,1019.84
2019-05-30T06:55:48.466Z,1019.83
2019-05-30T06:56:48.455Z,1019.79
2019-05-30T06:57:48.455Z,1019.85
2019-05-30T06:58:49.202Z,1019.82
2019-05-30T06:59:48.424Z,1019.84
2019-05-30T07:00:48.413Z,1019.80
2019-05-30T07:01:51.806Z,1019.85
2019-05-30T07:02:48.403Z,1019.77
2019-05-30T07:03:48.480Z,1019.82
2019-05-30T07:04:52.126Z,1019.80
2019-05-30T07:05:48.958Z,1019.73
2019-05-30T07:06:48.621Z,1019.74
2019-05-30T07:07:48.516Z,1019.73
2019-05-30T07:08:48.331Z,1019.76
2019-05-30T07:09:48.321Z,1019.74
2019-05-30T07:10:48.312Z,1019.72
2019-05-30T07:11:48.306Z,1019.71
2019-05-30T07:12:48.301Z,1019.70
2019-05-30T07:13:48.281Z,1019.71
2019-05-30T07:14:48.269Z,1019.66
2019-05-30T07:15:48.258Z,1019.67
2019-05-30T07:16:48.250Z,1019.64
2019-05-30T07:17:48.251Z,1019.66
2019-05-30T07:18:48.229Z,1019.67
2019-05-30T07:19:48.216Z,1019.61
2019-05-30T07:20:48.206Z,1019.59
2019-05-30T07:21:48.195Z,1019.61
2019-05-30T07:22:48.195Z,1019.56
2019-05-30T07:23:48.175Z,1019.59
2019-05-30T07:24:48.163Z,1019.53
2019-05-30T07:25:48.151Z,1019.51
2019-05-30T07:26:48.142Z,1019.54
2019-05-30T07:27:48.132Z,1019.51
2019-05-30T07:28:48.129Z,1019.51
2019-05-30T07:29:48.107Z,1019.50
2019-05-30T07:30:48.098Z,1019.54
2019-05-30T07:31:48.091Z,1019.50
2019-05-30T07:32:48.081Z,1019.48
2019-05-30T07:33:48.076Z,1019.48
2019-05-30T07:34:48.058Z,1019.49
2019-05-30T07:35:48.048Z,1019.47
2019-05-30T07:36:48.035Z,1019.49
2019-05-30T07:37:48.030Z,1019.53
2019-05-30T07:38:48.022Z,1019.49
2019-05-30T07:39:48.012Z,1019.48
2019-05-30T07:40:47.993Z,1019.43
2019-05-30T07:42:04.905Z,1019.51
2019-05-30T07:42:48.970Z,1019.53
2019-05-30T07:43:47.970Z,1019.47
2019-05-30T07:44:47.950Z,1019.45
2019-05-30T07:45:57.659Z,1019.49
2019-05-30T07:46:48.928Z,1019.46
2019-05-30T07:47:47.922Z,1019.47
2019-05-30T07:48:47.915Z,1019.47
2019-05-30T07:49:47.897Z,1019.49
2019-05-30T07:50:47.889Z,1019.45
2019-05-30T07:51:47.878Z,1019.45
2019-05-30T07:52:47.866Z,1019.47
2019-05-30T07:53:47.863Z,1019.43
2019-05-30T07:54:47.843Z,1019.43
2019-05-30T07:55:47.833Z,1019.43
2019-05-30T07:56:47.824Z,1019.45
2019-05-30T07:57:47.811Z,1019.43
2019-05-30T07:58:47.813Z,1019.42
2019-05-30T07:59:47.800Z,1019.42
2019-05-30T08:00:47.782Z,1019.37
2019-05-30T08:01:47.769Z,1019.39
2019-05-30T08:02:47.760Z,1019.33
2019-05-30T08:03:47.756Z,1019.34
2019-05-30T08:04:47.739Z,1019.32
2019-05-30T08:05:47.725Z,1019.26
2019-05-30T08:06:47.715Z,1019.23
2019-05-30T08:07:47.705Z,1019.22
2019-05-30T08:08:47.702Z,1019.33
2019-05-30T08:09:47.684Z,1019.28
2019-05-30T08:10:47.672Z,1019.26
2019-05-30T08:11:47.663Z,1019.26
2019-05-30T08:12:47.651Z,1019.24
2019-05-30T08:13:47.653Z,1019.32
2019-05-30T08:14:47.631Z,1019.32
2019-05-30T08:15:47.619Z,1019.36
2019-05-30T08:16:47.608Z,1019.38
2019-05-30T08:17:47.603Z,1019.34
2019-05-30T08:18:47.596Z,1019.38
2019-05-30T08:19:47.575Z,1019.34
2019-05-30T08:20:47.565Z,1019.33
2019-05-30T08:21:47.555Z,1019.36
2019-05-30T08:22:47.547Z,1019.33
2019-05-30T08:23:47.542Z,1019.32
2019-05-30T08:24:47.524Z,1019.29
2019-05-30T08:25:47.513Z,1019.23
2019-05-30T08:26:47.502Z,1019.25
2019-05-30T08:27:47.491Z,1019.24
2019-05-30T08:28:47.501Z,1019.28
2019-05-30T08:29:47.470Z,1019.29
2019-05-30T08:30:47.459Z,1019.26
2019-05-30T08:31:47.446Z,1019.24
2019-05-30T08:32:47.438Z,1019.25
2019-05-30T08:33:47.628Z,1019.23
2019-05-30T08:34:47.416Z,1019.25
2019-05-30T08:35:49.579Z,1019.25
2019-05-30T08:36:47.393Z,1019.17
2019-05-30T08:37:47.391Z,1019.19
2019-05-30T08:38:48.263Z,1019.18
2019-05-30T08:39:47.362Z,1019.13
2019-05-30T08:40:47.352Z,1019.11
2019-05-30T08:41:47.344Z,1019.16
2019-05-30T08:42:47.332Z,1019.06
2019-05-30T08:43:47.319Z,1019.17
2019-05-30T08:44:47.316Z,1019.09
2019-05-30T08:45:47.301Z,1019.05
2019-05-30T08:46:47.288Z,1018.97
2019-05-30T08:47:47.275Z,1019.03
2019-05-30T08:48:47.264Z,1018.98
2019-05-30T08:49:47.264Z,1019.06
2019-05-30T08:50:47.243Z,1019.04
2019-05-30T08:51:47.234Z,1019.05
2019-05-30T08:52:47.223Z,1019.02
2019-05-30T08:53:47.211Z,1019.01
2019-05-30T08:54:47.211Z,1018.97
2019-05-30T08:55:47.190Z,1018.96
2019-05-30T08:56:47.178Z,1018.98
2019-05-30T08:57:47.176Z,1018.95
2019-05-30T08:58:47.156Z,1018.96
2019-05-30T08:59:47.159Z,1018.96
2019-05-30T09:00:47.138Z,1018.95
2019-05-30T09:01:51.714Z,1018.92
2019-05-30T09:02:48.115Z,1018.94
2019-05-30T09:03:47.103Z,1018.94
2019-05-30T09:04:47.100Z,1018.89
2019-05-30T09:05:59.300Z,1018.87
2019-05-30T09:06:48.070Z,1018.88
2019-05-30T09:07:47.065Z,1018.84
2019-05-30T09:08:47.049Z,1018.88
2019-05-30T09:09:47.047Z,1018.85
2019-05-30T09:10:47.030Z,1018.85
2019-05-30T09:11:47.017Z,1018.83
2019-05-30T09:12:49.489Z,1018.83
2019-05-30T09:13:46.996Z,1018.80
2019-05-30T09:14:47.007Z,1018.72
2019-05-30T09:15:47.124Z,1018.80
2019-05-30T09:16:48.269Z,1018.75
2019-05-30T09:17:46.960Z,1018.80
2019-05-30T09:18:47.482Z,1018.81
2019-05-30T09:19:47.492Z,1018.85
2019-05-30T09:20:47.447Z,1018.80
2019-05-30T09:21:47.514Z,1018.81
2019-05-30T09:22:47.430Z,1018.82
2019-05-30T09:23:47.964Z,1018.81
2019-05-30T09:24:47.937Z,1018.82
2019-05-30T09:25:49.302Z,1018.85
2019-05-30T09:26:50.194Z,1018.83
2019-05-30T09:27:48.245Z,1018.88
2019-05-30T09:28:46.835Z,1018.85
2019-05-30T09:29:46.834Z,1018.81
2019-05-30T09:30:46.819Z,1018.72
2019-05-30T09:31:46.803Z,1018.73
2019-05-30T09:32:47.055Z,1018.66
2019-05-30T09:33:46.791Z,1018.68
2019-05-30T09:34:47.015Z,1018.67
2019-05-30T09:35:47.084Z,1018.66
2019-05-30T09:36:46.961Z,1018.61
2019-05-30T09:37:47.762Z,1018.62
2019-05-30T09:38:47.450Z,1018.58
2019-05-30T09:39:47.417Z,1018.60
2019-05-30T09:40:47.651Z,1018.56
2019-05-30T09:41:47.743Z,1018.57
2019-05-30T09:42:48.521Z,1018.52
2019-05-30T09:43:46.675Z,1018.57
2019-05-30T09:44:50.208Z,1018.55
2019-05-30T09:45:46.657Z,1018.57
2019-05-30T09:46:47.005Z,1018.62
2019-05-30T09:47:47.133Z,1018.60
2019-05-30T09:48:46.817Z,1018.60
2019-05-30T09:49:46.626Z,1018.63
2019-05-30T09:50:46.819Z,1018.55
2019-05-30T09:51:47.021Z,1018.53
2019-05-30T09:52:47.132Z,1018.56
2019-05-30T09:53:46.569Z,1018.63
2019-05-30T09:54:46.569Z,1018.60
2019-05-30T09:55:46.561Z,1018.66
2019-05-30T09:56:46.646Z,1018.64
2019-05-30T09:57:47.575Z,1018.55
2019-05-30T09:58:47.665Z,1018.56
2019-05-30T09:59:48.158Z,1018.54
2019-05-30T10:00:48.203Z,1018.58
2019-05-30T10:01:46.483Z,1018.52
2019-05-30T10:02:46.836Z,1018.57
2019-05-30T10:03:46.597Z,1018.50
2019-05-30T10:04:46.900Z,1018.50
2019-05-30T10:05:47.057Z,1018.48
2019-05-30T10:06:46.431Z,1018.46
2019-05-30T10:07:47.499Z,1018.44
2019-05-30T10:08:47.724Z,1018.48
2019-05-30T10:09:47.157Z,1018.42
2019-05-30T10:10:47.702Z,1018.52
2019-05-30T10:11:47.243Z,1018.50
2019-05-30T10:12:46.929Z,1018.50
2019-05-30T10:13:47.518Z,1018.45
2019-05-30T10:14:46.898Z,1018.45
2019-05-30T10:15:46.962Z,1018.45
2019-05-30T10:16:50.338Z,1018.47
2019-05-30T10:17:48.125Z,1018.42
2019-05-30T10:18:47.437Z,1018.41
2019-05-30T10:19:47.149Z,1018.39
2019-05-30T10:20:47.835Z,1018.35
2019-05-30T10:21:47.183Z,1018.37
2019-05-30T10:22:47.112Z,1018.33
2019-05-30T10:23:47.519Z,1018.30
2019-05-30T10:24:47.576Z,1018.29
2019-05-30T10:25:47.846Z,1018.30
2019-05-30T10:26:47.230Z,1018.28
2019-05-30T10:27:48.032Z,1018.28
2019-05-30T10:28:47.712Z,1018.26
2019-05-30T10:29:47.595Z,1018.19
2019-05-30T10:30:50.921Z,1018.11
2019-05-30T10:31:48.272Z,1018.16
2019-05-30T10:32:47.336Z,1018.14
2019-05-30T10:33:47.559Z,1018.21
2019-05-30T10:34:46.634Z,1018.14
2019-05-30T10:35:47.435Z,1018.19
2019-05-30T10:36:47.723Z,1018.10
2019-05-30T10:37:47.178Z,1018.10
2019-05-30T10:38:47.388Z,1018.10
2019-05-30T10:39:47.312Z,1018.07
2019-05-30T10:40:47.371Z,1018.10
2019-05-30T10:41:47.463Z,1018.17
2019-05-30T10:42:47.551Z,1018.15
2019-05-30T10:43:47.362Z,1018.17
2019-05-30T10:44:47.512Z,1018.20
2019-05-30T10:45:46.572Z,1018.17
2019-05-30T10:46:47.218Z,1018.15
2019-05-30T10:47:47.484Z,1018.18
2019-05-30T10:48:47.297Z,1018.07
2019-05-30T10:49:46.835Z,1018.10
2019-05-30T10:50:47.018Z,1018.11
2019-05-30T10:51:46.637Z,1018.08
2019-05-30T10:52:47.142Z,1018.11
2019-05-30T10:53:47.385Z,1018.04
2019-05-30T10:54:46.704Z,1018.01
2019-05-30T10:55:46.929Z,1017.90
2019-05-30T10:56:47.036Z,1017.95
2019-05-30T10:57:47.019Z,1017.92
2019-05-30T10:58:47.988Z,1017.99
2019-05-30T10:59:47.186Z,1017.95
2019-05-30T11:00:47.234Z,1017.92
2019-05-30T11:01:47.092Z,1017.84
2019-05-30T11:02:47.376Z,1017.82
2019-05-30T11:03:47.125Z,1017.88
2019-05-30T11:04:46.142Z,1017.91
2019-05-30T11:05:46.215Z,1017.84
2019-05-30T11:07:01.279Z,1017.82
2019-05-30T11:08:00.162Z,1017.72
2019-05-30T11:08:47.924Z,1017.77
2019-05-30T11:09:46.605Z,1017.77
2019-05-30T11:10:46.430Z,1017.74
2019-05-30T11:11:46.637Z,1017.71
2019-05-30T11:12:46.618Z,1017.77
2019-05-30T11:13:46.786Z,1017.67
2019-05-30T11:14:46.825Z,1017.64
2019-05-30T11:15:47.078Z,1017.70
2019-05-30T11:16:45.706Z,1017.65
2019-05-30T11:17:45.685Z,1017.64
2019-05-30T11:18:45.674Z,1017.70
2019-05-30T11:19:45.665Z,1017.75
2019-05-30T11:20:45.654Z,1017.66
2019-05-30T11:21:45.653Z,1017.63
2019-05-30T11:22:45.638Z,1017.59
2019-05-30T11:23:45.622Z,1017.62
2019-05-30T11:24:45.611Z,1017.62
2019-05-30T11:25:45.663Z,1017.61
2019-05-30T11:26:45.600Z,1017.57
2019-05-30T11:27:45.583Z,1017.59
2019-05-30T11:28:45.568Z,1017.59
2019-05-30T11:29:45.557Z,1017.57
2019-05-30T11:30:45.553Z,1017.60
2019-05-30T11:31:45.545Z,1017.57
2019-05-30T11:32:45.528Z,1017.53
2019-05-30T11:33:45.520Z,1017.52
2019-05-30T11:34:45.505Z,1017.47
2019-05-30T11:35:45.494Z,1017.44
2019-05-30T11:36:45.492Z,1017.44
2019-05-30T11:37:45.472Z,1017.41
2019-05-30T11:38:45.521Z,1017.38
2019-05-30T11:39:45.452Z,1017.39
2019-05-30T11:40:45.440Z,1017.36
2019-05-30T11:41:45.438Z,1017.38
2019-05-30T11:42:45.419Z,1017.39
2019-05-30T11:43:45.415Z,1017.38
2019-05-30T11:44:45.410Z,1017.39
2019-05-30T11:45:45.388Z,1017.38
2019-05-30T11:46:45.390Z,1017.32
2019-05-30T11:47:45.368Z,1017.32
2019-05-30T11:48:45.356Z,1017.39
2019-05-30T11:49:45.346Z,1017.36
2019-05-30T11:50:45.390Z,1017.32
2019-05-30T11:51:45.336Z,1017.32
2019-05-30T11:52:45.315Z,1017.34
2019-05-30T11:53:45.354Z,1017.37
2019-05-30T11:54:45.295Z,1017.30
2019-05-30T11:55:45.290Z,1017.34
2019-05-30T11:56:45.285Z,1017.30
2019-05-30T11:57:45.262Z,1017.34
2019-05-30T11:58:45.252Z,1017.33
2019-05-30T11:59:45.242Z,1017.34
2019-05-30T12:00:45.230Z,1017.25
2019-05-30T12:01:45.257Z,1017.32
2019-05-30T12:02:45.239Z,1017.23
2019-05-30T12:03:45.210Z,1017.24
2019-05-30T12:04:45.188Z,1017.26